Cantil, CA (93519)

2:46 PM PDT on August 22, 2014 (GMT -0700)
Red Rock Canyon | Change Station
CLOSE
Current Station
Personal Weather Station
Location: Cantil, CA
Elevation: 2592 ft
Nearby Weather Stations

Elev 2592 ft 35.37 °N, 117.99 °W | Updated 4 minutes ago

Clear
Clear
92.1 °F
Feels Like 88 °F
N
12.0
Wind Variable Wind from SW
Gusts 28.0 mph

Today
High -- | Low -- °F
--% Chance of Precip.
Yesterday
High -- | Low -- °F
Precip. -- in
6:16 AM 7:31 PM
Waning Crescent, 6% visible
Pressure 29.93 in
Visibility 10.0 miles
Clouds Clear
Heat Index 88 °F
Dew Point 32 °F
Humidity 12%
Rainfall 0.00 in
Snow Depth Not available.
UV 10 out of 12
Pollen 8.50 out of 12
Ozone Moderate
Flu Activity Not available.
METAR KMHV 222135Z AUTO 27020G27KT 10SM CLR 33/05 A2993 RMK AO1

More Conditions Fewer Conditions

Pressure 29.93 in
Visibility 10.0 miles
Clouds Clear
Heat Index 88 °F
Dew Point 32 °F
Humidity 12%
Rainfall 0.00 in
Snow Depth Not available.
UV 10 out of 12
Pollen 8.50 out of 12
Ozone Moderate
Flu Activity Not available.
METAR KMHV 222135Z AUTO 27020G27KT 10SM CLR 33/05 A2993 RMK AO1

More Conditions Fewer Conditions

10-Day Weather Forecast

Almanac

Astronomy

Aug. 22, 2014 Rise Set
Actual Time 6:16 AM PDT 7:31 PM PDT
Civil Twilight 5:50 AM PDT 7:58 PM PDT
Nautical Twilight 5:18 AM PDT 8:29 PM PDT
Astronomical Twilight 4:45 AM PDT 9:02 PM PDT
Moon 3:46 AM PDT 5:41 PM PDT
Length of Visible Light 14h 08m
Length of Day
13h 15m
Tomorrow will be 2m 3s shorter.
Waning Crescent, 6% of the Moon is Illuminated
Today
Waning Crescent
Aug 25
New
Sep 2
First Quarter
Sep 8
Full
Sep 15
Last Quarter

Today's Extremes

State Highs State Lows

Community

WunderPhotos

Upload Photos

1,746,260 photos uploaded!

Nearby

Air Quality

  Air Quality AQ Index Pollutant
Current Moderate
OZONE
Saturday Good
PM10
Saturday Good
OZONE
Saturday Good
CO
Saturday Good
NO2

Snow Depth

Station Depth Elevation
Leavitt Meadows 1 in 7200 ft
Summit Meadow 0 in 9122 ft
Monitor Pass 0 in 8350 ft
Echo Peak 0 in 7800 ft
Tahoe City Cross 0 in 6750 ft

Earthquake Activity

City Distance Mag. Time & Date
Big Bear City, California 92 miles 3.7 9:55 PM PDT
2014-08-17
Minimum magnitude displayed is 2.5.

Coastal Water Temperatures

Place Temperature
No Stations Reporting

Nearby Weather Stations